Time;durP1;ratioP1;P1;durP2;ratioP2;P2;SDS_P1;SDS_P2;PMS_P1;PMS_P2;Temp;Humidity;BMP_temperature;BMP_pressure;BME280_temperature;BME280_humidity;BME280_pressure;Samples;Min_cycle;Max_cycle;Signal;HPM_P1;HPM_P2
2022/12/05 00:01:39;;;;;;;55.50;29.47;;;;;;;;;;5002602;28;20266;-69
2022/12/05 00:04:06;;;;;;;53.50;28.33;;;;;;;;;;5002171;28;20205;-68
2022/12/05 00:06:31;;;;;;;54.73;29.30;;;;;;;;;;5003573;28;20205;-68
2022/12/05 00:08:57;;;;;;;52.87;28.47;;;;;;;;;;5003165;28;20270;-68
2022/12/05 00:11:23;;;;;;;56.07;29.27;;;;;;;;;;4984203;28;20225;-68
2022/12/05 00:13:48;;;;;;;62.33;30.87;;;;;;;;;;4976225;28;20235;-68
2022/12/05 00:16:15;;;;;;;61.33;29.93;;;;;;;;;;4975384;28;20577;-68
2022/12/05 00:18:40;;;;;;;61.40;30.87;;;;;;;;;;4981702;28;20608;-69
2022/12/05 00:21:06;;;;;;;58.17;29.63;;;;;;;;;;5002641;28;20219;-68
2022/12/05 00:23:31;;;;;;;56.97;30.57;;;;;;;;;;5003297;28;20291;-68
2022/12/05 00:25:56;;;;;;;58.43;29.83;;;;;;;;;;5003942;28;20209;-68
2022/12/05 00:28:22;;;;;;;58.23;30.20;;;;;;;;;;4991751;28;20217;-68
2022/12/05 00:30:47;;;;;;;56.30;28.83;;;;;;;;;;4984299;28;21246;-68
2022/12/05 00:33:12;;;;;;;59.93;30.47;;;;;;;;;;4980013;28;20221;-68
2022/12/05 00:35:38;;;;;;;58.67;29.03;;;;;;;;;;4976025;28;20229;-68
2022/12/05 00:38:03;;;;;;;62.90;32.10;;;;;;;;;;4994028;28;20966;-68
2022/12/05 00:40:28;;;;;;;58.80;30.63;;;;;;;;;;4997911;28;20664;-69
2022/12/05 00:42:53;;;;;;;59.00;30.13;;;;;;;;;;5002233;28;20212;-69
2022/12/05 00:45:19;;;;;;;56.03;29.43;;;;;;;;;;5002602;28;20793;-68
2022/12/05 00:47:44;;;;;;;60.37;31.10;;;;;;;;;;5003140;28;20216;-68
2022/12/05 00:50:09;;;;;;;63.37;31.40;;;;;;;;;;5001473;28;20687;-68
2022/12/05 00:52:34;;;;;;;63.40;30.90;;;;;;;;;;5002933;28;20228;-68
2022/12/05 00:55:00;;;;;;;64.33;31.17;;;;;;;;;;5002687;28;20676;-69
2022/12/05 00:57:25;;;;;;;59.90;31.90;;;;;;;;;;4982079;28;20220;-68
2022/12/05 00:59:50;;;;;;;58.40;30.47;;;;;;;;;;4975848;28;20712;-68
2022/12/05 01:02:15;;;;;;;62.67;31.83;;;;;;;;;;4975498;28;20241;-68
2022/12/05 01:04:41;;;;;;;61.07;30.43;;;;;;;;;;4982228;28;20728;-69
2022/12/05 01:07:06;;;;;;;62.73;30.27;;;;;;;;;;4983207;28;20220;-68
2022/12/05 01:09:31;;;;;;;63.17;31.93;;;;;;;;;;4983525;28;20281;-68
2022/12/05 01:11:56;;;;;;;60.83;31.67;;;;;;;;;;4982991;28;20291;-69
2022/12/05 01:14:22;;;;;;;60.30;30.80;;;;;;;;;;4983513;28;20713;-68
2022/12/05 01:16:48;;;;;;;62.60;32.00;;;;;;;;;;4990470;28;20213;-68
2022/12/05 01:19:16;;;;;;;63.33;31.80;;;;;;;;;;4984050;28;20803;-68
2022/12/05 01:21:41;;;;;;;60.93;31.27;;;;;;;;;;4979543;28;20223;-69
2022/12/05 01:24:07;;;;;;;61.60;30.17;;;;;;;;;;4981534;28;20213;-68
2022/12/05 01:26:32;;;;;;;62.00;30.30;;;;;;;;;;5003790;28;20234;-68
2022/12/05 01:28:57;;;;;;;65.17;30.80;;;;;;;;;;4996097;28;20316;-68
2022/12/05 01:31:24;;;;;;;65.20;31.57;;;;;;;;;;4989032;28;20299;-68
2022/12/05 01:33:49;;;;;;;64.67;31.37;;;;;;;;;;4989318;28;20221;-69
2022/12/05 01:36:15;;;;;;;56.37;27.33;;;;;;;;;;4989223;28;20220;-68
2022/12/05 01:38:40;;;;;;;61.40;30.20;;;;;;;;;;4988833;28;20227;-68
2022/12/05 01:41:06;;;;;;;63.40;31.23;;;;;;;;;;5004401;28;20220;-69
2022/12/05 01:43:31;;;;;;;58.67;29.33;;;;;;;;;;5001518;28;20770;-68
2022/12/05 01:45:56;;;;;;;57.47;29.50;;;;;;;;;;5000292;28;20220;-69
2022/12/05 01:48:25;;;;;;;57.47;30.30;;;;;;;;;;5003369;28;20641;-69
2022/12/05 01:50:50;;;;;;;61.40;30.00;;;;;;;;;;5008634;28;20212;-69
2022/12/05 01:53:16;;;;;;;58.93;29.17;;;;;;;;;;5007746;28;20227;-68
2022/12/05 01:55:41;;;;;;;55.90;28.70;;;;;;;;;;5007605;28;20216;-69
2022/12/05 01:58:06;;;;;;;58.87;29.43;;;;;;;;;;4990359;28;20220;-68
2022/12/05 02:00:32;;;;;;;52.20;27.27;;;;;;;;;;4990729;28;20679;-68
2022/12/05 02:02:58;;;;;;;53.87;28.57;;;;;;;;;;4997475;28;20768;-68
2022/12/05 02:05:24;;;;;;;56.70;29.10;;;;;;;;;;4997270;28;20219;-68
2022/12/05 02:07:50;;;;;;;57.13;29.43;;;;;;;;;;4996977;28;20241;-69
2022/12/05 02:10:15;;;;;;;57.53;28.97;;;;;;;;;;5003444;28;20244;-68
2022/12/05 02:12:40;;;;;;;57.13;28.07;;;;;;;;;;5018660;28;20224;-69
2022/12/05 02:15:15;;;;;;;57.53;30.17;;;;;;;;;;5016054;28;20299;-68
2022/12/05 02:17:53;;;;;;;58.37;29.67;;;;;;;;;;5017518;28;20220;-68
2022/12/05 02:20:24;;;;;;;57.27;28.90;;;;;;;;;;5017945;28;20223;-68
2022/12/05 02:23:01;;;;;;;54.37;28.03;;;;;;;;;;5017761;28;20220;-69
2022/12/05 02:25:34;;;;;;;57.77;28.47;;;;;;;;;;5017960;28;20267;-69
2022/12/05 02:28:07;;;;;;;54.23;28.27;;;;;;;;;;5011567;28;20232;-69
2022/12/05 02:30:37;;;;;;;57.93;27.93;;;;;;;;;;5013952;28;20212;-68
2022/12/05 02:33:05;;;;;;;56.73;28.47;;;;;;;;;;5013663;28;20303;-68
2022/12/05 02:35:45;;;;;;;61.37;30.53;;;;;;;;;;5014390;28;20292;-69
2022/12/05 02:38:14;;;;;;;54.73;29.00;;;;;;;;;;5013566;28;20220;-68
2022/12/05 02:40:42;;;;;;;55.67;28.80;;;;;;;;;;5013799;28;20687;-69
2022/12/05 02:43:19;;;;;;;58.77;28.97;;;;;;;;;;5014027;28;20221;-68
2022/12/05 02:45:44;;;;;;;63.30;30.63;;;;;;;;;;5013756;28;20617;-69
2022/12/05 02:48:10;;;;;;;59.07;29.30;;;;;;;;;;5014671;28;20295;-69
2022/12/05 02:50:35;;;;;;;60.37;29.97;;;;;;;;;;5012727;28;20208;-69
2022/12/05 02:53:03;;;;;;;54.70;27.80;;;;;;;;;;5013256;28;20231;-66
2022/12/05 02:55:28;;;;;;;66.00;30.47;;;;;;;;;;5013569;28;20213;-69
2022/12/05 02:57:54;;;;;;;55.20;28.17;;;;;;;;;;5012849;28;20287;-69
2022/12/05 03:00:20;;;;;;;56.80;28.80;;;;;;;;;;5000031;28;20227;-69
2022/12/05 03:02:47;;;;;;;60.83;29.50;;;;;;;;;;5001245;28;20244;-69
2022/12/05 03:05:13;;;;;;;59.67;29.03;;;;;;;;;;4992897;28;20209;-69
2022/12/05 03:07:38;;;;;;;61.80;30.13;;;;;;;;;;4995172;28;20221;-69
2022/12/05 03:10:04;;;;;;;56.93;28.03;;;;;;;;;;5001346;28;20696;-70
2022/12/05 03:12:34;;;;;;;63.90;30.60;;;;;;;;;;4995845;28;20267;-70
2022/12/05 03:15:01;;;;;;;57.73;29.00;;;;;;;;;;4996946;28;20217;-70
2022/12/05 03:17:29;;;;;;;59.17;27.87;;;;;;;;;;5000069;28;20294;-71
2022/12/05 03:19:56;;;;;;;57.13;28.60;;;;;;;;;;4982670;28;20248;-70
2022/12/05 03:22:30;;;;;;;59.47;28.87;;;;;;;;;;4980966;28;20297;-71
2022/12/05 03:24:55;;;;;;;59.90;28.57;;;;;;;;;;4994654;28;20216;-72
2022/12/05 03:27:32;;;;;;;61.73;29.90;;;;;;;;;;4981588;28;20668;-71
2022/12/05 03:30:01;;;;;;;58.57;29.30;;;;;;;;;;5004223;28;20315;-72
2022/12/05 03:32:36;;;;;;;53.97;27.50;;;;;;;;;;5002113;28;20231;-72
2022/12/05 03:35:01;;;;;;;56.57;28.43;;;;;;;;;;4993982;28;20225;-71
2022/12/05 03:37:30;;;;;;;62.50;29.37;;;;;;;;;;4984802;28;20565;-72
2022/12/05 03:40:01;;;;;;;56.43;27.97;;;;;;;;;;5003595;28;20569;-72
2022/12/05 03:42:27;;;;;;;60.13;29.07;;;;;;;;;;5002064;28;20208;-72
2022/12/05 03:44:54;;;;;;;59.80;29.23;;;;;;;;;;4995157;28;20221;-72
2022/12/05 03:47:22;;;;;;;57.83;28.77;;;;;;;;;;4995367;28;20425;-72
2022/12/05 03:49:50;;;;;;;56.10;28.30;;;;;;;;;;4997444;28;20307;-72
2022/12/05 03:52:16;;;;;;;57.77;28.97;;;;;;;;;;4991290;28;20766;-72
2022/12/05 03:54:43;;;;;;;60.97;30.43;;;;;;;;;;4984740;28;20224;-72
2022/12/05 03:57:19;;;;;;;57.70;28.60;;;;;;;;;;4991409;28;20209;-72
2022/12/05 03:59:46;;;;;;;62.30;29.77;;;;;;;;;;4992152;28;20220;-72
2022/12/05 04:02:14;;;;;;;58.30;27.87;;;;;;;;;;4998628;28;20359;-72
2022/12/05 04:04:45;;;;;;;57.53;29.27;;;;;;;;;;5001800;28;20212;-72
2022/12/05 04:07:10;;;;;;;63.93;30.43;;;;;;;;;;4994823;28;20320;-72
2022/12/05 04:09:38;;;;;;;59.03;28.67;;;;;;;;;;4993815;28;20316;-72
2022/12/05 04:12:05;;;;;;;56.07;29.27;;;;;;;;;;4992214;28;20737;-71
2022/12/05 04:14:33;;;;;;;57.83;28.70;;;;;;;;;;4982581;28;20213;-72
2022/12/05 04:17:03;;;;;;;56.70;29.20;;;;;;;;;;4984810;28;20225;-72
2022/12/05 04:22:32;;;;;;;59.43;29.30;;;;;;;;;;5001914;28;20222;-72
2022/12/05 04:27:49;;;;;;;56.00;28.80;;;;;;;;;;4979987;28;20360;-72
2022/12/05 04:30:18;;;;;;;55.67;29.17;;;;;;;;;;4993661;28;20217;-71
2022/12/05 04:32:44;;;;;;;54.60;28.87;;;;;;;;;;4995141;28;20233;-72
2022/12/05 04:35:12;;;;;;;55.17;28.37;;;;;;;;;;4996459;28;20255;-71
2022/12/05 04:37:39;;;;;;;56.90;27.97;;;;;;;;;;4986455;28;20288;-72
2022/12/05 04:40:07;;;;;;;55.30;28.83;;;;;;;;;;4983574;28;20209;-71
2022/12/05 04:42:32;;;;;;;54.07;29.10;;;;;;;;;;5002066;28;20235;-71
2022/12/05 04:44:59;;;;;;;52.30;27.67;;;;;;;;;;5001977;28;20248;-72
2022/12/05 04:47:25;;;;;;;54.70;28.37;;;;;;;;;;5001163;28;20937;-72
2022/12/05 04:49:51;;;;;;;50.53;27.97;;;;;;;;;;5002006;28;20602;-72
2022/12/05 04:52:17;;;;;;;51.87;27.70;;;;;;;;;;4993757;28;20242;-72
2022/12/05 04:54:46;;;;;;;52.50;27.00;;;;;;;;;;4993269;28;20319;-72
2022/12/05 04:57:16;;;;;;;55.07;27.50;;;;;;;;;;4981909;28;20220;-72
2022/12/05 04:59:41;;;;;;;53.83;28.27;;;;;;;;;;4981617;28;20649;-72
2022/12/05 05:02:07;;;;;;;53.37;26.80;;;;;;;;;;4999663;28;20347;-71
2022/12/05 05:04:35;;;;;;;49.90;26.60;;;;;;;;;;4982917;28;20216;-72
2022/12/05 05:07:06;;;;;;;48.87;26.33;;;;;;;;;;4981774;28;20217;-72
2022/12/05 05:09:31;;;;;;;51.50;26.73;;;;;;;;;;5001427;28;20239;-72
2022/12/05 05:11:56;;;;;;;51.93;26.73;;;;;;;;;;5000391;28;20695;-72
2022/12/05 05:14:21;;;;;;;50.93;27.20;;;;;;;;;;4977747;28;20216;-72
2022/12/05 05:16:47;;;;;;;44.83;25.37;;;;;;;;;;4974934;28;20772;-73
2022/12/05 05:19:12;;;;;;;50.13;27.00;;;;;;;;;;4975014;28;20228;-72
2022/12/05 05:21:38;;;;;;;42.10;23.73;;;;;;;;;;4980724;28;20354;-72
2022/12/05 05:24:04;;;;;;;48.20;26.33;;;;;;;;;;4982255;28;20649;-72
2022/12/05 05:26:29;;;;;;;48.57;25.97;;;;;;;;;;4989350;28;21234;-72
2022/12/05 05:28:55;;;;;;;45.87;25.10;;;;;;;;;;4982735;28;20205;-72
2022/12/05 05:31:20;;;;;;;45.97;25.50;;;;;;;;;;5001096;28;20228;-72
2022/12/05 05:33:47;;;;;;;47.37;26.20;;;;;;;;;;5002728;28;20212;-72
2022/12/05 05:36:13;;;;;;;47.73;26.53;;;;;;;;;;4998855;28;20219;-72
2022/12/05 05:38:39;;;;;;;45.43;24.73;;;;;;;;;;4978938;28;20217;-73
2022/12/05 05:41:05;;;;;;;41.27;24.10;;;;;;;;;;4974756;28;20300;-72
2022/12/05 05:43:30;;;;;;;48.57;26.23;;;;;;;;;;4976767;28;20300;-72
2022/12/05 05:45:55;;;;;;;45.63;25.47;;;;;;;;;;4981354;28;20217;-72
2022/12/05 05:48:20;;;;;;;42.27;23.63;;;;;;;;;;5001383;28;20788;-71
2022/12/05 05:50:46;;;;;;;45.80;24.50;;;;;;;;;;5001556;28;20236;-72
2022/12/05 05:53:11;;;;;;;42.23;24.57;;;;;;;;;;4981331;28;20217;-72
2022/12/05 05:55:40;;;;;;;41.30;22.87;;;;;;;;;;4983353;28;20746;-72
2022/12/05 05:58:05;;;;;;;44.87;25.43;;;;;;;;;;4983018;28;20997;-72
2022/12/05 06:00:30;;;;;;;37.77;22.97;;;;;;;;;;4974389;28;20213;-72
2022/12/05 06:02:55;;;;;;;46.53;24.83;;;;;;;;;;4977626;28;20235;-72
2022/12/05 06:05:21;;;;;;;43.07;23.43;;;;;;;;;;4997785;28;20212;-71
2022/12/05 06:07:46;;;;;;;46.50;25.57;;;;;;;;;;5005058;28;20299;-72
2022/12/05 06:10:11;;;;;;;46.00;24.90;;;;;;;;;;5005492;28;20212;-71
2022/12/05 06:12:37;;;;;;;48.07;25.63;;;;;;;;;;5000035;28;20287;-72
2022/12/05 06:15:02;;;;;;;39.53;23.77;;;;;;;;;;4985224;28;20224;-71
2022/12/05 06:17:27;;;;;;;48.57;25.73;;;;;;;;;;4986568;28;20223;-72
2022/12/05 06:19:52;;;;;;;45.57;25.50;;;;;;;;;;4985607;28;20217;-72
2022/12/05 06:22:18;;;;;;;46.83;26.40;;;;;;;;;;4980057;28;20221;-71
2022/12/05 06:24:43;;;;;;;41.40;25.43;;;;;;;;;;4978265;28;20252;-72
2022/12/05 06:27:08;;;;;;;46.93;25.10;;;;;;;;;;4977382;28;20502;-71
2022/12/05 06:29:34;;;;;;;45.97;25.27;;;;;;;;;;4984097;28;20209;-72
2022/12/05 06:31:59;;;;;;;43.97;24.33;;;;;;;;;;4986309;28;20240;-72
2022/12/05 06:34:25;;;;;;;43.53;24.47;;;;;;;;;;4985274;28;20275;-72
2022/12/05 06:36:50;;;;;;;41.93;25.00;;;;;;;;;;4985981;28;20317;-72
2022/12/05 06:39:15;;;;;;;43.97;24.90;;;;;;;;;;4986013;28;20750;-71
2022/12/05 06:41:40;;;;;;;42.13;24.43;;;;;;;;;;4985496;28;20217;-72
2022/12/05 06:44:06;;;;;;;41.50;24.73;;;;;;;;;;4985922;28;20834;-71
2022/12/05 06:46:31;;;;;;;45.57;25.43;;;;;;;;;;5006769;28;20205;-72
2022/12/05 06:48:56;;;;;;;41.53;25.00;;;;;;;;;;4994663;28;20221;-72
2022/12/05 06:51:22;;;;;;;42.10;25.30;;;;;;;;;;4994963;28;20221;-72
2022/12/05 06:53:48;;;;;;;45.20;25.67;;;;;;;;;;4995188;28;20220;-67
2022/12/05 06:56:14;;;;;;;47.07;30.27;;;;;;;;;;4996800;28;20423;-68
2022/12/05 06:58:39;;;;;;;42.87;26.90;;;;;;;;;;5014242;28;20263;-66
2022/12/05 07:03:49;;;;;;;40.43;24.87;;;;;;;;;;5003407;28;20256;-69
2022/12/05 07:06:15;;;;;;;43.17;24.70;;;;;;;;;;5003206;28;20217;-69
2022/12/05 07:08:40;;;;;;;45.43;25.40;;;;;;;;;;5003240;28;20296;-69
2022/12/05 07:11:06;;;;;;;39.83;23.53;;;;;;;;;;5003460;28;20208;-68
2022/12/05 07:13:31;;;;;;;38.60;24.00;;;;;;;;;;5003443;28;20217;-68
2022/12/05 07:15:57;;;;;;;40.10;24.17;;;;;;;;;;5004295;28;20208;-66
2022/12/05 07:18:23;;;;;;;41.10;24.53;;;;;;;;;;5003709;28;20220;-66
2022/12/05 07:20:55;;;;;;;40.97;23.03;;;;;;;;;;5004451;28;20263;-66
2022/12/05 07:23:20;;;;;;;41.30;24.97;;;;;;;;;;5001802;28;21220;-66
2022/12/05 07:25:45;;;;;;;39.53;23.70;;;;;;;;;;5004349;28;20208;-66
2022/12/05 07:28:11;;;;;;;45.07;25.47;;;;;;;;;;5002123;28;20213;-65
2022/12/05 07:30:36;;;;;;;40.03;23.60;;;;;;;;;;4994047;28;20224;-67
2022/12/05 07:33:01;;;;;;;39.23;24.10;;;;;;;;;;5001105;28;20721;-66
2022/12/05 07:35:26;;;;;;;40.73;24.53;;;;;;;;;;5001579;28;20213;-67
2022/12/05 07:37:52;;;;;;;42.80;24.53;;;;;;;;;;5003519;28;20212;-68
2022/12/05 07:40:17;;;;;;;38.33;23.17;;;;;;;;;;5002314;28;20216;-67
2022/12/05 07:42:42;;;;;;;36.90;22.37;;;;;;;;;;5005274;28;20219;-68
2022/12/05 07:45:08;;;;;;;34.97;21.67;;;;;;;;;;5003505;28;20220;-68
2022/12/05 07:47:33;;;;;;;39.90;24.23;;;;;;;;;;5005712;28;20669;-68
2022/12/05 07:49:59;;;;;;;37.57;23.07;;;;;;;;;;4999146;28;20219;-67
2022/12/05 07:52:24;;;;;;;38.60;23.83;;;;;;;;;;4994451;28;20217;-68
2022/12/05 07:54:49;;;;;;;24.17;16.37;;;;;;;;;;4994225;28;20624;-69
2022/12/05 07:57:14;;;;;;;38.60;22.93;;;;;;;;;;4994094;28;20213;-66
2022/12/05 07:59:40;;;;;;;37.63;23.27;;;;;;;;;;5002198;28;20684;-67
2022/12/05 08:02:05;;;;;;;34.37;21.67;;;;;;;;;;5013143;28;20244;-68
2022/12/05 08:04:30;;;;;;;35.87;22.03;;;;;;;;;;5013410;28;20343;-66
2022/12/05 08:06:55;;;;;;;38.37;24.80;;;;;;;;;;5009318;28;20217;-69
2022/12/05 08:09:21;;;;;;;43.40;25.20;;;;;;;;;;5000232;28;20212;-68
2022/12/05 08:11:46;;;;;;;40.47;24.70;;;;;;;;;;5002531;28;20217;-67
2022/12/05 08:14:11;;;;;;;41.93;25.00;;;;;;;;;;5002135;28;20209;-68
2022/12/05 08:16:36;;;;;;;37.93;24.10;;;;;;;;;;4997961;28;20607;-66
2022/12/05 08:19:04;;;;;;;40.17;24.17;;;;;;;;;;4992199;28;20308;-65
2022/12/05 08:21:29;;;;;;;43.97;25.40;;;;;;;;;;5002757;28;20261;-66
2022/12/05 08:23:54;;;;;;;42.70;25.03;;;;;;;;;;5009339;28;20308;-66
2022/12/05 08:26:21;;;;;;;40.77;24.67;;;;;;;;;;4981643;28;20236;-66
2022/12/05 08:28:49;;;;;;;42.80;25.67;;;;;;;;;;4973600;28;20218;-66
2022/12/05 08:31:15;;;;;;;45.63;26.30;;;;;;;;;;4973427;28;20300;-66
2022/12/05 08:33:40;;;;;;;46.63;26.67;;;;;;;;;;4971544;28;20271;-64
2022/12/05 08:36:06;;;;;;;43.20;25.03;;;;;;;;;;4973776;28;20210;-65
2022/12/05 08:38:32;;;;;;;43.23;24.03;;;;;;;;;;4974096;28;20228;-65
2022/12/05 08:41:00;;;;;;;47.33;26.00;;;;;;;;;;4973457;28;20592;-65
2022/12/05 08:43:26;;;;;;;43.43;25.00;;;;;;;;;;4993257;28;20233;-65
2022/12/05 08:45:52;;;;;;;42.60;25.07;;;;;;;;;;4993416;28;20233;-66
2022/12/05 08:48:17;;;;;;;44.90;25.70;;;;;;;;;;4991455;28;20217;-65
2022/12/05 08:50:42;;;;;;;49.33;25.43;;;;;;;;;;4992102;28;20216;-65
2022/12/05 08:53:08;;;;;;;44.53;26.03;;;;;;;;;;4991659;28;20217;-64
2022/12/05 08:55:33;;;;;;;46.30;25.23;;;;;;;;;;4992096;28;20290;-66
2022/12/05 08:57:58;;;;;;;40.70;23.37;;;;;;;;;;5010831;28;20240;-66
2022/12/05 09:00:24;;;;;;;43.73;25.73;;;;;;;;;;4997565;28;20216;-66
2022/12/05 09:02:50;;;;;;;50.90;26.20;;;;;;;;;;4991796;28;20229;-66
2022/12/05 09:05:15;;;;;;;46.00;25.80;;;;;;;;;;4992716;28;20213;-66
2022/12/05 09:07:41;;;;;;;44.03;25.77;;;;;;;;;;4993171;28;20307;-66
2022/12/05 09:10:06;;;;;;;48.40;25.10;;;;;;;;;;4991791;28;20681;-66
2022/12/05 09:12:32;;;;;;;43.33;24.37;;;;;;;;;;4992938;28;20231;-66
2022/12/05 09:14:57;;;;;;;41.70;24.53;;;;;;;;;;4991523;28;20217;-66
2022/12/05 09:17:23;;;;;;;39.37;24.17;;;;;;;;;;4991750;28;20229;-66
2022/12/05 09:19:50;;;;;;;49.80;26.27;;;;;;;;;;4992351;28;20244;-66
2022/12/05 09:22:16;;;;;;;45.60;24.97;;;;;;;;;;4992321;28;20224;-66
2022/12/05 09:24:41;;;;;;;36.83;22.37;;;;;;;;;;4992273;28;20213;-66
2022/12/05 09:27:06;;;;;;;43.47;24.40;;;;;;;;;;4992383;28;20690;-66
2022/12/05 09:29:31;;;;;;;45.10;24.20;;;;;;;;;;4992965;28;20209;-66
2022/12/05 09:31:57;;;;;;;50.43;25.23;;;;;;;;;;4992158;28;20229;-66
2022/12/05 09:34:24;;;;;;;52.67;27.17;;;;;;;;;;4991875;28;20237;-65
2022/12/05 09:36:50;;;;;;;49.47;25.73;;;;;;;;;;4994788;28;20221;-66
2022/12/05 09:39:16;;;;;;;49.97;25.57;;;;;;;;;;4996368;28;20571;-66
2022/12/05 09:42:04;;;;;;;49.27;25.30;;;;;;;;;;4995660;28;20232;-65
2022/12/05 09:44:31;;;;;;;49.77;25.47;;;;;;;;;;4994689;28;20278;-66
2022/12/05 09:46:58;;;;;;;53.70;27.03;;;;;;;;;;4996687;28;20646;-66
2022/12/05 09:49:24;;;;;;;55.50;26.80;;;;;;;;;;4993807;28;20201;-65
2022/12/05 09:51:49;;;;;;;46.10;24.97;;;;;;;;;;5007139;28;20785;-66
2022/12/05 09:54:14;;;;;;;50.47;25.43;;;;;;;;;;4999166;28;20341;-66
2022/12/05 09:56:40;;;;;;;45.43;23.77;;;;;;;;;;5000746;28;20234;-66
2022/12/05 09:59:08;;;;;;;45.23;25.80;;;;;;;;;;4985748;28;20217;-66
2022/12/05 10:01:33;;;;;;;45.67;26.40;;;;;;;;;;4997207;28;20247;-66
2022/12/05 10:04:10;;;;;;;49.43;26.43;;;;;;;;;;5001918;28;20228;-66
2022/12/05 10:06:41;;;;;;;48.70;26.00;;;;;;;;;;4987023;28;20217;-66
2022/12/05 10:09:19;;;;;;;53.40;28.83;;;;;;;;;;4968659;28;20221;-66
2022/12/05 10:11:48;;;;;;;47.07;25.20;;;;;;;;;;4988188;28;20830;-66
2022/12/05 10:14:27;;;;;;;48.70;24.37;;;;;;;;;;4983945;28;20259;-66
2022/12/05 10:16:53;;;;;;;53.20;26.37;;;;;;;;;;4973763;28;20292;-66
2022/12/05 10:19:22;;;;;;;45.03;24.40;;;;;;;;;;4986328;28;20260;-67
2022/12/05 10:21:48;;;;;;;41.50;22.73;;;;;;;;;;4980442;28;20673;-66
2022/12/05 10:24:14;;;;;;;42.40;23.33;;;;;;;;;;4981320;28;20229;-66
2022/12/05 10:26:43;;;;;;;43.53;22.70;;;;;;;;;;4981307;28;20342;-66
2022/12/05 10:29:12;;;;;;;43.43;24.23;;;;;;;;;;4988376;28;20221;-65
2022/12/05 10:31:37;;;;;;;48.20;26.03;;;;;;;;;;4988062;28;20292;-66
2022/12/05 10:34:05;;;;;;;50.50;26.10;;;;;;;;;;4988136;28;20738;-66
2022/12/05 10:36:31;;;;;;;65.83;38.43;;;;;;;;;;4987982;28;20213;-66
2022/12/05 10:38:56;;;;;;;61.33;37.13;;;;;;;;;;4990136;28;20264;-66
2022/12/05 10:41:21;;;;;;;50.97;25.63;;;;;;;;;;5005677;28;20220;-66
2022/12/05 10:43:48;;;;;;;40.80;23.03;;;;;;;;;;5003859;28;20226;-66
2022/12/05 10:46:13;;;;;;;215.50;131.03;;;;;;;;;;5000101;28;20705;-66
2022/12/05 10:48:39;;;;;;;188.83;113.73;;;;;;;;;;4998394;28;20715;-65
2022/12/05 10:51:05;;;;;;;46.63;27.40;;;;;;;;;;4995880;28;20224;-66
2022/12/05 10:53:33;;;;;;;41.00;22.53;;;;;;;;;;4989600;28;20292;-66
2022/12/05 10:55:58;;;;;;;42.33;23.03;;;;;;;;;;4988126;28;20268;-66
2022/12/05 10:58:24;;;;;;;77.67;36.33;;;;;;;;;;4989315;28;20252;-66
2022/12/05 11:00:50;;;;;;;36.20;21.23;;;;;;;;;;4990802;28;20224;-66
2022/12/05 11:03:24;;;;;;;48.37;26.07;;;;;;;;;;4990597;28;20233;-67
2022/12/05 11:05:49;;;;;;;40.03;22.37;;;;;;;;;;4989423;28;20267;-67
2022/12/05 11:08:21;;;;;;;38.33;21.50;;;;;;;;;;4988527;28;20320;-69
2022/12/05 11:10:47;;;;;;;34.30;20.67;;;;;;;;;;4983781;28;20223;-70
2022/12/05 11:13:14;;;;;;;39.23;22.30;;;;;;;;;;4992027;28;21123;-70
2022/12/05 11:15:43;;;;;;;38.60;21.50;;;;;;;;;;4989174;28;20213;-70
2022/12/05 11:18:18;;;;;;;33.77;19.93;;;;;;;;;;5007067;28;20211;-70
2022/12/05 11:20:44;;;;;;;35.13;20.07;;;;;;;;;;5006893;28;20571;-70
2022/12/05 11:23:16;;;;;;;33.17;20.43;;;;;;;;;;5006842;28;20220;-70
2022/12/05 11:25:42;;;;;;;35.50;20.10;;;;;;;;;;5007786;28;20222;-70
2022/12/05 11:28:16;;;;;;;33.95;20.08;;;;;;;;;;5005280;28;20212;-70
2022/12/05 11:30:55;;;;;;;32.23;19.10;;;;;;;;;;4999060;28;20291;-70
2022/12/05 11:33:21;;;;;;;32.03;19.47;;;;;;;;;;4999188;28;20259;-70
2022/12/05 11:35:46;;;;;;;31.87;19.50;;;;;;;;;;5001961;28;20564;-70
2022/12/05 11:38:12;;;;;;;36.67;20.47;;;;;;;;;;5006869;28;20688;-70
2022/12/05 11:40:37;;;;;;;32.20;18.97;;;;;;;;;;5007717;28;20216;-70
2022/12/05 11:43:10;;;;;;;29.80;18.50;;;;;;;;;;5007547;28;21068;-69
2022/12/05 11:45:45;;;;;;;29.30;18.47;;;;;;;;;;5006143;28;20307;-70
2022/12/05 11:48:14;;;;;;;30.97;19.20;;;;;;;;;;5005166;28;20227;-69
2022/12/05 11:50:49;;;;;;;27.37;17.17;;;;;;;;;;5005090;28;21025;-70
2022/12/05 11:53:14;;;;;;;33.73;21.27;;;;;;;;;;4998321;28;20228;-69
2022/12/05 11:55:43;;;;;;;30.10;18.60;;;;;;;;;;4999205;28;20216;-70
2022/12/05 11:58:20;;;;;;;28.50;17.83;;;;;;;;;;4996331;28;20255;-70
2022/12/05 12:00:50;;;;;;;29.73;20.03;;;;;;;;;;4988666;28;20303;-70
2022/12/05 12:03:16;;;;;;;26.43;17.50;;;;;;;;;;4998280;28;20770;-68
2022/12/05 12:05:49;;;;;;;26.80;17.93;;;;;;;;;;4987891;28;20229;-69
2022/12/05 12:08:18;;;;;;;30.13;19.47;;;;;;;;;;4997648;28;20720;-69
2022/12/05 12:10:49;;;;;;;29.33;19.10;;;;;;;;;;5005057;28;20212;-69
2022/12/05 12:13:25;;;;;;;27.20;17.30;;;;;;;;;;5005215;28;20696;-69
2022/12/05 12:15:57;;;;;;;27.27;16.50;;;;;;;;;;4990790;28;20529;-69
2022/12/05 12:18:33;;;;;;;27.58;17.20;;;;;;;;;;4996932;28;20212;-69
2022/12/05 12:21:11;;;;;;;26.03;16.53;;;;;;;;;;5001055;28;20212;-69
2022/12/05 12:23:41;;;;;;;26.10;16.87;;;;;;;;;;4990686;28;20215;-69
2022/12/05 12:26:15;;;;;;;25.83;15.97;;;;;;;;;;5005686;28;20216;-69
2022/12/05 12:28:44;;;;;;;22.97;16.20;;;;;;;;;;5006891;28;20216;-69
2022/12/05 12:31:11;;;;;;;24.43;16.53;;;;;;;;;;5005017;28;20299;-69
2022/12/05 12:33:36;;;;;;;24.50;15.73;;;;;;;;;;5005758;28;20224;-68
2022/12/05 12:36:05;;;;;;;25.03;17.63;;;;;;;;;;5004349;28;20427;-66
2022/12/05 12:38:30;;;;;;;26.37;16.50;;;;;;;;;;4995737;28;20812;-66
2022/12/05 12:40:57;;;;;;;21.73;14.83;;;;;;;;;;4998212;28;20220;-68
2022/12/05 12:43:23;;;;;;;19.60;13.70;;;;;;;;;;4980928;28;20225;-67
2022/12/05 12:46:05;;;;;;;22.23;14.63;;;;;;;;;;4987825;28;20231;-67
2022/12/05 12:48:36;;;;;;;22.50;15.30;;;;;;;;;;4974682;28;20312;-68
2022/12/05 12:51:01;;;;;;;19.45;13.43;;;;;;;;;;4968094;28;20241;-66
2022/12/05 12:53:39;;;;;;;19.00;14.37;;;;;;;;;;4967877;28;20225;-65
2022/12/05 12:56:14;;;;;;;21.47;15.50;;;;;;;;;;4967653;28;20623;-65
2022/12/05 12:58:50;;;;;;;21.13;15.10;;;;;;;;;;4969273;28;20205;-66
2022/12/05 13:01:19;;;;;;;26.13;16.30;;;;;;;;;;4958824;28;20213;-66
2022/12/05 13:03:46;;;;;;;20.17;15.07;;;;;;;;;;4960401;28;20909;-66
2022/12/05 13:06:16;;;;;;;20.57;14.20;;;;;;;;;;4961716;28;20629;-66
2022/12/05 13:08:42;;;;;;;19.77;13.60;;;;;;;;;;4985876;28;20221;-66
2022/12/05 13:11:07;;;;;;;19.17;14.00;;;;;;;;;;4980496;28;20582;-66
2022/12/05 13:13:35;;;;;;;20.10;14.13;;;;;;;;;;4983596;28;20568;-66
2022/12/05 13:16:00;;;;;;;20.50;13.30;;;;;;;;;;4982382;28;20751;-66
2022/12/05 13:18:26;;;;;;;18.43;13.37;;;;;;;;;;4985261;28;20224;-66
2022/12/05 13:20:52;;;;;;;17.50;12.33;;;;;;;;;;4983944;28;20245;-66
2022/12/05 13:23:18;;;;;;;18.70;14.10;;;;;;;;;;4976867;28;20252;-66
2022/12/05 13:25:44;;;;;;;19.27;15.52;;;;;;;;;;4976591;28;20440;-67
2022/12/05 13:28:20;;;;;;;18.67;13.20;;;;;;;;;;4975377;28;20349;-66
2022/12/05 13:30:56;;;;;;;17.87;12.27;;;;;;;;;;4965275;28;20205;-66
2022/12/05 13:33:24;;;;;;;17.97;12.97;;;;;;;;;;4985914;28;20220;-66
2022/12/05 13:44:01;;;;;;;18.43;12.70;;;;;;;;;;4983006;28;20224;-66
2022/12/05 13:46:28;;;;;;;15.83;10.97;;;;;;;;;;4977815;28;20209;-66
2022/12/05 13:48:59;;;;;;;14.90;10.32;;;;;;;;;;4977215;28;20751;-66
2022/12/05 13:51:29;;;;;;;10.90;7.77;;;;;;;;;;4978861;28;20213;-66
2022/12/05 13:54:00;;;;;;;12.27;8.90;;;;;;;;;;4986182;28;20225;-66
2022/12/05 13:56:26;;;;;;;12.10;9.00;;;;;;;;;;4987419;28;20915;-67
2022/12/05 13:58:53;;;;;;;8.30;5.80;;;;;;;;;;4987471;28;20692;-68
2022/12/05 14:01:25;;;;;;;10.37;7.13;;;;;;;;;;4972508;28;20249;-66
2022/12/05 14:03:50;;;;;;;8.07;6.00;;;;;;;;;;4972388;28;20537;-67
2022/12/05 14:06:34;;;;;;;13.20;9.53;;;;;;;;;;4979305;28;20544;-67
2022/12/05 14:08:59;;;;;;;12.30;8.67;;;;;;;;;;4990139;28;20244;-66
2022/12/05 14:11:25;;;;;;;6.70;4.60;;;;;;;;;;5004529;28;20236;-66
2022/12/05 14:13:50;;;;;;;10.10;5.97;;;;;;;;;;5009153;28;20627;-66
2022/12/05 14:16:40;;;;;;;18.53;10.90;;;;;;;;;;4999314;28;20293;-66
2022/12/05 14:19:15;;;;;;;11.07;7.07;;;;;;;;;;4991333;28;20240;-66
2022/12/05 14:21:41;;;;;;;5.60;3.90;;;;;;;;;;4991125;28;20295;-66
2022/12/05 14:24:11;;;;;;;8.60;5.90;;;;;;;;;;4993455;28;20300;-66
2022/12/05 14:26:39;;;;;;;6.00;4.77;;;;;;;;;;4993557;28;20208;-66
2022/12/05 14:29:05;;;;;;;6.90;4.47;;;;;;;;;;4993781;28;20509;-67
2022/12/05 14:31:30;;;;;;;6.27;4.20;;;;;;;;;;4995568;28;20240;-66
2022/12/05 14:34:03;;;;;;;6.50;3.70;;;;;;;;;;4995639;28;20291;-66
2022/12/05 14:36:30;;;;;;;4.20;2.77;;;;;;;;;;4997272;28;20248;-65